Time;durP1;ratioP1;P1;durP2;ratioP2;P2;SDS_P1;SDS_P2;PMS_P1;PMS_P2;Temp;Humidity;BMP_temperature;BMP_pressure;BME280_temperature;BME280_humidity;BME280_pressure;Samples;Min_cycle;Max_cycle;Signal;HPM_P1;HPM_P2
2022/07/09 00:01:47;;;;;;;22.80;21.30;;;;;;;;;;5092250;28;20494;-69
2022/07/09 00:04:14;;;;;;;21.30;20.10;;;;;;;;;;5092821;28;20442;-69
2022/07/09 00:06:42;;;;;;;21.97;20.67;;;;;;;;;;5092749;28;20420;-69
2022/07/09 00:09:09;;;;;;;21.33;20.00;;;;;;;;;;5092461;28;20429;-69
2022/07/09 00:11:36;;;;;;;22.00;20.57;;;;;;;;;;5092685;28;20452;-69
2022/07/09 00:14:05;;;;;;;21.47;20.17;;;;;;;;;;5092260;28;20936;-69
2022/07/09 00:16:33;;;;;;;21.50;20.30;;;;;;;;;;5092405;28;20409;-69
2022/07/09 00:19:00;;;;;;;22.40;20.90;;;;;;;;;;5092417;28;20838;-69
2022/07/09 00:21:27;;;;;;;21.03;19.80;;;;;;;;;;5091916;28;20977;-69
2022/07/09 00:23:55;;;;;;;21.40;20.10;;;;;;;;;;5092251;28;20437;-69
2022/07/09 00:26:22;;;;;;;22.03;20.73;;;;;;;;;;5092504;28;20827;-68
2022/07/09 00:28:49;;;;;;;22.17;20.97;;;;;;;;;;5092211;28;20419;-69
2022/07/09 00:31:18;;;;;;;21.77;20.50;;;;;;;;;;5092185;28;20426;-69
2022/07/09 00:33:45;;;;;;;22.07;20.67;;;;;;;;;;5092183;28;20817;-69
2022/07/09 00:36:13;;;;;;;22.50;21.20;;;;;;;;;;5092075;28;20454;-68
2022/07/09 00:38:40;;;;;;;21.77;20.13;;;;;;;;;;5092542;28;20409;-69
2022/07/09 00:41:07;;;;;;;22.73;21.33;;;;;;;;;;5092233;28;20481;-69
2022/07/09 00:43:35;;;;;;;22.43;21.23;;;;;;;;;;5092411;28;20806;-69
2022/07/09 00:46:02;;;;;;;22.27;21.07;;;;;;;;;;5092097;28;20776;-69
2022/07/09 00:48:31;;;;;;;22.13;20.83;;;;;;;;;;5092228;28;20926;-69
2022/07/09 00:50:58;;;;;;;21.37;20.27;;;;;;;;;;5091960;28;20787;-69
2022/07/09 00:53:27;;;;;;;21.10;19.90;;;;;;;;;;5092350;28;20447;-69
2022/07/09 00:55:55;;;;;;;22.03;20.73;;;;;;;;;;5092336;28;20427;-69
2022/07/09 00:58:22;;;;;;;21.83;20.60;;;;;;;;;;5095556;28;20413;-69
2022/07/09 01:00:50;;;;;;;22.27;20.90;;;;;;;;;;5095866;28;20504;-70
2022/07/09 01:03:17;;;;;;;22.80;21.60;;;;;;;;;;5096124;28;20850;-68
2022/07/09 01:05:46;;;;;;;22.20;20.90;;;;;;;;;;5096030;28;20405;-69
2022/07/09 01:08:14;;;;;;;23.70;22.30;;;;;;;;;;5096076;28;20888;-69
2022/07/09 01:10:41;;;;;;;22.30;20.80;;;;;;;;;;5095839;28;20428;-69
2022/07/09 01:13:09;;;;;;;23.53;22.23;;;;;;;;;;5095791;28;20432;-69
2022/07/09 01:15:36;;;;;;;23.60;22.00;;;;;;;;;;5095963;28;20414;-69
2022/07/09 01:18:03;;;;;;;23.23;21.93;;;;;;;;;;5095263;28;20468;-69
2022/07/09 01:20:32;;;;;;;22.63;21.23;;;;;;;;;;5095279;28;20455;-69
2022/07/09 01:23:00;;;;;;;23.23;21.77;;;;;;;;;;5095599;28;20476;-70
2022/07/09 01:25:32;;;;;;;22.20;20.90;;;;;;;;;;5095503;28;20423;-69
2022/07/09 01:27:59;;;;;;;23.27;21.97;;;;;;;;;;5095615;28;20417;-69
2022/07/09 01:30:27;;;;;;;23.40;22.00;;;;;;;;;;5095467;28;20416;-69
2022/07/09 01:32:55;;;;;;;22.97;21.77;;;;;;;;;;5095529;28;20953;-69
2022/07/09 01:35:22;;;;;;;22.80;21.30;;;;;;;;;;5095431;28;20418;-69
2022/07/09 01:37:51;;;;;;;22.20;21.00;;;;;;;;;;5095422;28;20401;-68
2022/07/09 01:40:19;;;;;;;22.90;21.60;;;;;;;;;;5095078;28;20956;-69
2022/07/09 01:42:46;;;;;;;22.33;21.07;;;;;;;;;;5094929;28;20459;-68
2022/07/09 01:45:14;;;;;;;21.60;20.50;;;;;;;;;;5095309;28;20421;-69
2022/07/09 01:47:41;;;;;;;22.93;21.57;;;;;;;;;;5094808;28;20444;-69
2022/07/09 01:50:09;;;;;;;22.13;20.93;;;;;;;;;;5094982;28;20422;-70
2022/07/09 01:52:37;;;;;;;21.93;20.67;;;;;;;;;;5094918;28;20419;-69
2022/07/09 01:55:07;;;;;;;23.07;21.30;;;;;;;;;;5094801;28;20949;-69
2022/07/09 01:57:34;;;;;;;22.43;21.23;;;;;;;;;;5094846;28;20447;-69
2022/07/09 02:00:03;;;;;;;21.80;20.60;;;;;;;;;;5095015;28;20767;-69
2022/07/09 02:02:31;;;;;;;22.13;20.80;;;;;;;;;;5094875;28;20787;-69
2022/07/09 02:04:58;;;;;;;21.30;20.10;;;;;;;;;;5094633;28;20418;-70
2022/07/09 02:07:25;;;;;;;22.00;20.70;;;;;;;;;;5094673;28;20497;-69
2022/07/09 02:09:53;;;;;;;21.90;20.37;;;;;;;;;;5094765;28;20438;-69
2022/07/09 02:12:21;;;;;;;22.57;21.27;;;;;;;;;;5094710;28;20408;-69
2022/07/09 02:14:49;;;;;;;23.37;21.90;;;;;;;;;;5094675;28;20439;-69
2022/07/09 02:17:16;;;;;;;22.77;21.47;;;;;;;;;;5094178;28;20441;-69
2022/07/09 02:19:44;;;;;;;22.77;21.43;;;;;;;;;;5094082;28;20855;-69
2022/07/09 02:22:11;;;;;;;22.03;20.93;;;;;;;;;;5093992;28;20496;-69
2022/07/09 02:24:39;;;;;;;22.90;21.37;;;;;;;;;;5094173;28;20415;-69
2022/07/09 02:27:06;;;;;;;22.80;21.60;;;;;;;;;;5094100;28;20446;-69
2022/07/09 02:29:35;;;;;;;22.23;20.93;;;;;;;;;;5094324;28;20413;-69
2022/07/09 02:32:03;;;;;;;21.67;20.57;;;;;;;;;;5094287;28;20417;-69
2022/07/09 02:34:30;;;;;;;23.00;21.63;;;;;;;;;;5094242;28;20437;-69
2022/07/09 02:36:57;;;;;;;23.17;21.87;;;;;;;;;;5093715;28;20421;-69
2022/07/09 02:39:25;;;;;;;22.63;21.20;;;;;;;;;;5093862;28;20481;-69
2022/07/09 02:41:52;;;;;;;22.80;21.50;;;;;;;;;;5093581;28;20461;-69
2022/07/09 02:44:19;;;;;;;23.17;21.77;;;;;;;;;;5093691;28;20792;-69
2022/07/09 02:46:48;;;;;;;23.73;22.43;;;;;;;;;;5093772;28;20814;-69
2022/07/09 02:49:15;;;;;;;24.07;22.63;;;;;;;;;;5093600;28;20434;-69
2022/07/09 02:51:42;;;;;;;23.50;22.20;;;;;;;;;;5093646;28;20441;-69
2022/07/09 02:54:10;;;;;;;25.10;23.40;;;;;;;;;;5093558;28;20412;-69
2022/07/09 02:56:37;;;;;;;23.37;21.97;;;;;;;;;;5093395;28;20464;-69
2022/07/09 02:59:04;;;;;;;25.70;23.90;;;;;;;;;;5093520;28;20416;-68
2022/07/09 03:01:32;;;;;;;25.07;23.37;;;;;;;;;;5093705;28;20848;-70
2022/07/09 03:04:00;;;;;;;25.00;23.30;;;;;;;;;;5093524;28;20792;-70
2022/07/09 03:06:28;;;;;;;25.33;23.70;;;;;;;;;;5093670;28;20526;-69
2022/07/09 03:08:55;;;;;;;26.43;24.27;;;;;;;;;;5093228;28;20890;-68
2022/07/09 03:11:22;;;;;;;26.70;25.00;;;;;;;;;;5093519;28;20414;-69
2022/07/09 03:13:50;;;;;;;26.67;24.67;;;;;;;;;;5093190;28;20442;-69
2022/07/09 03:16:17;;;;;;;25.53;23.63;;;;;;;;;;5093275;28;20416;-69
2022/07/09 03:18:44;;;;;;;26.73;24.83;;;;;;;;;;5093015;28;20420;-69
2022/07/09 03:21:13;;;;;;;27.03;24.67;;;;;;;;;;5092173;28;20902;-69
2022/07/09 03:23:40;;;;;;;26.60;24.87;;;;;;;;;;5092998;28;20421;-69
2022/07/09 03:26:08;;;;;;;25.37;23.77;;;;;;;;;;5093229;28;20447;-69
2022/07/09 03:28:35;;;;;;;26.03;24.33;;;;;;;;;;5093299;28;20422;-69
2022/07/09 03:31:03;;;;;;;25.20;23.60;;;;;;;;;;5093173;28;20430;-69
2022/07/09 03:33:30;;;;;;;25.93;24.20;;;;;;;;;;5092884;28;20406;-69
2022/07/09 03:35:58;;;;;;;25.50;23.80;;;;;;;;;;5093088;28;20420;-69
2022/07/09 03:38:27;;;;;;;25.67;24.17;;;;;;;;;;5093045;28;20439;-69
2022/07/09 03:40:54;;;;;;;24.63;22.87;;;;;;;;;;5092796;28;20446;-69
2022/07/09 03:43:21;;;;;;;25.70;24.10;;;;;;;;;;5092550;28;20452;-69
2022/07/09 03:45:49;;;;;;;26.80;24.70;;;;;;;;;;5092904;28;20424;-69
2022/07/09 03:48:17;;;;;;;24.67;22.90;;;;;;;;;;5092481;28;20417;-69
2022/07/09 03:50:44;;;;;;;26.23;24.43;;;;;;;;;;5092602;28;20996;-70
2022/07/09 03:53:11;;;;;;;27.27;25.27;;;;;;;;;;5092901;28;20415;-69
2022/07/09 03:55:40;;;;;;;28.13;26.07;;;;;;;;;;5092805;28;20412;-69
2022/07/09 03:58:07;;;;;;;27.57;25.57;;;;;;;;;;5092895;28;20429;-70
2022/07/09 04:00:35;;;;;;;25.97;24.30;;;;;;;;;;5092311;28;20910;-70
2022/07/09 04:03:02;;;;;;;26.27;24.37;;;;;;;;;;5092431;28;20481;-69
2022/07/09 04:05:29;;;;;;;26.80;24.77;;;;;;;;;;5092397;28;20431;-70
2022/07/09 04:07:56;;;;;;;26.53;24.40;;;;;;;;;;5092645;28;20466;-69
2022/07/09 04:10:24;;;;;;;26.70;24.90;;;;;;;;;;5092402;28;20430;-70
2022/07/09 04:12:52;;;;;;;27.10;25.13;;;;;;;;;;5092289;28;20763;-70
2022/07/09 04:15:20;;;;;;;27.13;25.40;;;;;;;;;;5092270;28;20438;-70
2022/07/09 04:17:47;;;;;;;27.90;25.90;;;;;;;;;;5092234;28;20404;-70
2022/07/09 04:20:14;;;;;;;26.87;24.83;;;;;;;;;;5091940;28;20476;-71
2022/07/09 04:22:42;;;;;;;27.27;25.20;;;;;;;;;;5092095;28;20504;-70
2022/07/09 04:25:09;;;;;;;26.83;24.70;;;;;;;;;;5092345;28;20414;-70
2022/07/09 04:27:38;;;;;;;26.70;25.00;;;;;;;;;;5092564;28;20455;-70
2022/07/09 04:30:09;;;;;;;27.33;25.07;;;;;;;;;;5092153;28;20915;-70
2022/07/09 04:32:37;;;;;;;27.17;25.47;;;;;;;;;;5094507;28;20948;-70
2022/07/09 04:35:04;;;;;;;27.33;25.17;;;;;;;;;;5096342;28;20446;-70
2022/07/09 04:37:32;;;;;;;27.80;25.57;;;;;;;;;;5096564;28;20414;-69
2022/07/09 04:39:59;;;;;;;29.13;26.33;;;;;;;;;;5096022;28;20846;-70
2022/07/09 04:42:27;;;;;;;27.43;25.40;;;;;;;;;;5096123;28;20489;-70
2022/07/09 04:44:54;;;;;;;28.63;26.63;;;;;;;;;;5096126;28;20938;-70
2022/07/09 04:47:23;;;;;;;28.93;26.67;;;;;;;;;;5095879;28;20884;-69
2022/07/09 04:49:50;;;;;;;27.57;25.67;;;;;;;;;;5096005;28;20413;-70
2022/07/09 04:52:19;;;;;;;30.37;27.70;;;;;;;;;;5096057;28;20775;-70
2022/07/09 04:54:46;;;;;;;30.00;27.90;;;;;;;;;;5095958;28;20493;-71
2022/07/09 04:57:14;;;;;;;28.27;26.20;;;;;;;;;;5096126;28;20433;-70
2022/07/09 04:59:41;;;;;;;30.43;28.07;;;;;;;;;;5096009;28;20826;-69
2022/07/09 05:02:09;;;;;;;30.90;28.17;;;;;;;;;;5096105;28;20470;-70
2022/07/09 05:04:37;;;;;;;31.70;29.20;;;;;;;;;;5096127;28;20417;-70
2022/07/09 05:07:05;;;;;;;29.50;27.20;;;;;;;;;;5095581;28;20857;-69
2022/07/09 05:09:33;;;;;;;31.63;29.03;;;;;;;;;;5095622;28;20465;-70
2022/07/09 05:12:00;;;;;;;33.43;30.80;;;;;;;;;;5095777;28;20428;-69
2022/07/09 05:14:27;;;;;;;29.30;26.90;;;;;;;;;;5096002;28;20411;-70
2022/07/09 05:16:55;;;;;;;29.93;27.40;;;;;;;;;;5095720;28;20412;-70
2022/07/09 05:19:22;;;;;;;30.53;28.10;;;;;;;;;;5095536;28;20434;-69
2022/07/09 05:21:51;;;;;;;29.30;26.93;;;;;;;;;;5095426;28;20442;-69
2022/07/09 05:24:18;;;;;;;30.47;27.37;;;;;;;;;;5095621;28;20769;-70
2022/07/09 05:26:45;;;;;;;28.80;26.80;;;;;;;;;;5095700;28;20432;-69
2022/07/09 05:29:13;;;;;;;29.50;27.10;;;;;;;;;;5095471;28;20453;-69
2022/07/09 05:31:40;;;;;;;27.43;25.23;;;;;;;;;;5095198;28;20810;-69
2022/07/09 05:34:08;;;;;;;29.03;26.60;;;;;;;;;;5095649;28;20451;-70
2022/07/09 05:36:36;;;;;;;26.93;25.10;;;;;;;;;;5095518;28;20535;-70
2022/07/09 05:39:06;;;;;;;27.97;25.70;;;;;;;;;;5095173;28;20951;-70
2022/07/09 05:41:33;;;;;;;31.63;29.23;;;;;;;;;;5095212;28;20772;-70
2022/07/09 05:44:03;;;;;;;29.50;27.27;;;;;;;;;;5094712;28;20501;-69
2022/07/09 05:46:30;;;;;;;30.03;27.73;;;;;;;;;;5095309;28;21110;-69
2022/07/09 05:48:57;;;;;;;29.77;27.30;;;;;;;;;;5095142;28;20439;-71
2022/07/09 05:51:25;;;;;;;30.07;27.40;;;;;;;;;;5095070;28;20470;-70
2022/07/09 05:53:52;;;;;;;28.23;25.93;;;;;;;;;;5095222;28;20439;-69
2022/07/09 05:56:21;;;;;;;27.23;25.17;;;;;;;;;;5095157;28;20424;-70
2022/07/09 05:58:48;;;;;;;29.17;26.80;;;;;;;;;;5094948;28;20463;-70
2022/07/09 06:01:15;;;;;;;30.10;27.80;;;;;;;;;;5088578;28;20441;-70
2022/07/09 06:03:43;;;;;;;27.97;26.00;;;;;;;;;;5085113;28;20473;-70
2022/07/09 06:06:10;;;;;;;27.70;25.77;;;;;;;;;;5094959;28;20463;-71
2022/07/09 06:08:38;;;;;;;30.10;27.90;;;;;;;;;;5094536;28;20419;-71
2022/07/09 06:11:06;;;;;;;29.37;27.17;;;;;;;;;;5094849;28;20438;-71
2022/07/09 06:13:34;;;;;;;26.80;25.10;;;;;;;;;;5094689;28;20408;-71
2022/07/09 06:16:02;;;;;;;30.37;27.93;;;;;;;;;;5094485;28;20441;-70
2022/07/09 06:18:29;;;;;;;29.10;26.70;;;;;;;;;;5094280;28;20891;-70
2022/07/09 06:20:57;;;;;;;26.40;24.70;;;;;;;;;;5093951;28;20457;-70
2022/07/09 06:23:24;;;;;;;26.83;24.93;;;;;;;;;;5094497;28;20570;-70
2022/07/09 06:25:51;;;;;;;29.53;27.23;;;;;;;;;;5094583;28;20421;-71
2022/07/09 06:28:19;;;;;;;26.93;25.03;;;;;;;;;;5094219;28;20405;-70
2022/07/09 06:30:47;;;;;;;26.07;24.03;;;;;;;;;;5093945;28;20954;-71
2022/07/09 06:33:15;;;;;;;26.00;24.20;;;;;;;;;;5094148;28;20447;-70
2022/07/09 06:35:42;;;;;;;27.70;25.50;;;;;;;;;;5094237;28;20440;-70
2022/07/09 06:38:09;;;;;;;27.63;25.63;;;;;;;;;;5093974;28;20413;-72
2022/07/09 06:40:37;;;;;;;25.30;23.73;;;;;;;;;;5094149;28;20887;-69
2022/07/09 06:43:05;;;;;;;26.53;24.53;;;;;;;;;;5094156;28;20448;-71
2022/07/09 06:45:32;;;;;;;24.23;22.73;;;;;;;;;;5094097;28;20455;-71
2022/07/09 06:48:01;;;;;;;25.67;23.80;;;;;;;;;;5093943;28;20431;-70
2022/07/09 06:50:28;;;;;;;24.90;23.20;;;;;;;;;;5093675;28;20950;-70
2022/07/09 06:52:55;;;;;;;24.13;22.63;;;;;;;;;;5094019;28;20410;-70
2022/07/09 06:55:23;;;;;;;25.33;23.43;;;;;;;;;;5092655;28;20447;-70
2022/07/09 06:57:50;;;;;;;23.53;22.10;;;;;;;;;;5085306;28;20439;-70
2022/07/09 07:00:17;;;;;;;24.80;22.77;;;;;;;;;;5093280;28;20445;-70
2022/07/09 07:02:44;;;;;;;24.50;22.90;;;;;;;;;;5093781;28;20475;-69
2022/07/09 07:05:13;;;;;;;23.70;22.20;;;;;;;;;;5093493;28;20435;-70
2022/07/09 07:07:40;;;;;;;23.53;22.13;;;;;;;;;;5093389;28;20449;-70
2022/07/09 07:10:08;;;;;;;24.83;23.10;;;;;;;;;;5093437;28;20427;-71
2022/07/09 07:12:35;;;;;;;22.30;20.97;;;;;;;;;;5093517;28;20459;-70
2022/07/09 07:15:03;;;;;;;23.53;22.00;;;;;;;;;;5093017;28;20405;-69
2022/07/09 07:17:31;;;;;;;23.87;22.17;;;;;;;;;;5093281;28;20463;-70
2022/07/09 07:19:58;;;;;;;21.73;20.43;;;;;;;;;;5092657;28;20980;-71
2022/07/09 07:22:27;;;;;;;23.63;22.23;;;;;;;;;;5093568;28;20401;-69
2022/07/09 07:24:54;;;;;;;23.10;21.50;;;;;;;;;;5093021;28;21037;-70
2022/07/09 07:27:22;;;;;;;22.07;20.70;;;;;;;;;;5093159;28;20988;-70
2022/07/09 07:29:49;;;;;;;22.93;21.43;;;;;;;;;;5092971;28;20802;-70
2022/07/09 07:32:16;;;;;;;23.60;22.10;;;;;;;;;;5093175;28;20788;-70
2022/07/09 07:34:43;;;;;;;22.87;21.47;;;;;;;;;;5093249;28;20457;-70
2022/07/09 07:37:11;;;;;;;23.10;21.60;;;;;;;;;;5092832;28;20525;-70
2022/07/09 07:39:39;;;;;;;22.77;21.37;;;;;;;;;;5092869;28;20492;-70
2022/07/09 07:42:07;;;;;;;21.57;20.37;;;;;;;;;;5092864;28;20443;-70
2022/07/09 07:44:35;;;;;;;23.40;22.00;;;;;;;;;;5092561;28;20475;-70
2022/07/09 07:47:02;;;;;;;21.83;20.63;;;;;;;;;;5092725;28;20445;-70
2022/07/09 07:49:29;;;;;;;22.43;21.00;;;;;;;;;;5092785;28;20431;-70
2022/07/09 07:51:57;;;;;;;22.13;20.93;;;;;;;;;;5092912;28;20439;-70
2022/07/09 07:54:24;;;;;;;23.27;21.87;;;;;;;;;;5092594;28;20417;-70
2022/07/09 07:56:53;;;;;;;22.40;21.20;;;;;;;;;;5092940;28;20412;-70
2022/07/09 07:59:20;;;;;;;23.73;21.90;;;;;;;;;;5092846;28;20430;-70
2022/07/09 08:01:47;;;;;;;21.80;20.57;;;;;;;;;;5092385;28;20431;-70
2022/07/09 08:04:15;;;;;;;20.90;19.70;;;;;;;;;;5092709;28;20476;-70
2022/07/09 08:06:42;;;;;;;21.37;20.07;;;;;;;;;;5092580;28;20421;-70
2022/07/09 08:09:09;;;;;;;21.90;20.60;;;;;;;;;;5092650;28;20405;-70
2022/07/09 08:11:36;;;;;;;22.67;21.13;;;;;;;;;;5092743;28;20407;-69
2022/07/09 08:14:07;;;;;;;21.03;19.83;;;;;;;;;;5091915;28;20885;-70
2022/07/09 08:16:34;;;;;;;21.10;19.90;;;;;;;;;;5092765;28;20426;-70
2022/07/09 08:19:01;;;;;;;21.93;20.53;;;;;;;;;;5092834;28;20518;-70
2022/07/09 08:21:28;;;;;;;21.20;20.00;;;;;;;;;;5092562;28;20479;-70
2022/07/09 08:23:56;;;;;;;22.30;20.93;;;;;;;;;;5092852;28;20465;-70
2022/07/09 08:26:24;;;;;;;21.23;20.03;;;;;;;;;;5093030;28;20422;-70
2022/07/09 08:28:52;;;;;;;21.90;20.67;;;;;;;;;;5092900;28;20415;-70
2022/07/09 08:31:21;;;;;;;21.00;19.93;;;;;;;;;;5092829;28;20411;-70
2022/07/09 08:33:48;;;;;;;21.40;20.20;;;;;;;;;;5092570;28;20411;-70
2022/07/09 08:36:16;;;;;;;21.17;19.97;;;;;;;;;;5092420;28;20448;-70
2022/07/09 08:38:43;;;;;;;21.90;20.70;;;;;;;;;;5092847;28;20417;-70
2022/07/09 08:41:11;;;;;;;22.47;21.17;;;;;;;;;;5092756;28;20428;-70
2022/07/09 08:43:39;;;;;;;22.17;20.87;;;;;;;;;;5092507;28;20486;-70
2022/07/09 08:46:07;;;;;;;22.00;20.70;;;;;;;;;;5092530;28;20419;-70
2022/07/09 08:48:36;;;;;;;22.00;20.80;;;;;;;;;;5092322;28;20434;-69
2022/07/09 08:51:04;;;;;;;22.17;20.87;;;;;;;;;;5092518;28;20558;-70
2022/07/09 08:53:32;;;;;;;21.47;20.27;;;;;;;;;;5092694;28;20419;-70
2022/07/09 08:55:59;;;;;;;23.40;22.10;;;;;;;;;;5092673;28;20404;-70
2022/07/09 08:58:26;;;;;;;21.80;20.60;;;;;;;;;;5092732;28;20469;-70
2022/07/09 09:00:56;;;;;;;22.27;20.97;;;;;;;;;;5092336;28;20425;-70
2022/07/09 09:03:23;;;;;;;22.07;20.77;;;;;;;;;;5092270;28;20499;-69
2022/07/09 09:06:03;;;;;;;22.70;21.10;;;;;;;;;;5092258;28;20414;-70
2022/07/09 09:08:35;;;;;;;21.90;20.50;;;;;;;;;;5092566;28;20423;-70
2022/07/09 09:11:02;;;;;;;23.37;21.97;;;;;;;;;;5092555;28;20497;-70
2022/07/09 09:13:30;;;;;;;22.43;21.13;;;;;;;;;;5092577;28;20413;-70
2022/07/09 09:16:04;;;;;;;22.07;20.63;;;;;;;;;;5092541;28;20421;-70
2022/07/09 09:18:31;;;;;;;21.43;20.17;;;;;;;;;;5093960;28;20459;-71
2022/07/09 09:21:05;;;;;;;23.37;21.80;;;;;;;;;;5095518;28;20461;-72
2022/07/09 09:23:40;;;;;;;21.60;20.40;;;;;;;;;;5096151;28;20479;-70
2022/07/09 09:26:11;;;;;;;21.70;20.47;;;;;;;;;;5095726;28;20446;-73
2022/07/09 09:28:46;;;;;;;22.73;21.17;;;;;;;;;;5095746;28;20426;-71
2022/07/09 09:31:19;;;;;;;22.83;21.50;;;;;;;;;;5095586;28;20456;-72
2022/07/09 09:33:46;;;;;;;22.03;20.73;;;;;;;;;;5095991;28;20418;-72
2022/07/09 09:36:27;;;;;;;22.40;21.20;;;;;;;;;;5095912;28;20436;-72
2022/07/09 09:38:54;;;;;;;21.67;20.40;;;;;;;;;;5095915;28;20439;-72
2022/07/09 09:41:23;;;;;;;22.33;21.03;;;;;;;;;;5095489;28;20440;-74
2022/07/09 09:43:53;;;;;;;22.00;20.80;;;;;;;;;;5095395;28;20500;-72
2022/07/09 09:46:20;;;;;;;21.70;20.50;;;;;;;;;;5095645;28;20458;-72
2022/07/09 09:48:48;;;;;;;21.63;20.23;;;;;;;;;;5095240;28;20855;-72
2022/07/09 09:51:18;;;;;;;21.67;20.43;;;;;;;;;;5095270;28;20436;-72
2022/07/09 09:53:47;;;;;;;21.33;20.13;;;;;;;;;;5095310;28;20444;-72
2022/07/09 09:56:14;;;;;;;22.47;21.03;;;;;;;;;;5095579;28;20447;-72
2022/07/09 09:58:42;;;;;;;21.60;19.97;;;;;;;;;;5095068;28;20414;-72
2022/07/09 10:01:09;;;;;;;22.53;21.17;;;;;;;;;;5095463;28;20431;-72
2022/07/09 10:03:36;;;;;;;21.70;20.40;;;;;;;;;;5095307;28;20413;-71
2022/07/09 10:06:04;;;;;;;20.87;19.77;;;;;;;;;;5095037;28;20436;-72
2022/07/09 10:08:31;;;;;;;21.30;20.00;;;;;;;;;;5095353;28;20443;-72
2022/07/09 10:11:00;;;;;;;21.83;20.50;;;;;;;;;;5094875;28;20410;-72
2022/07/09 10:13:27;;;;;;;21.73;20.53;;;;;;;;;;5095235;28;20415;-72
2022/07/09 10:15:56;;;;;;;22.47;21.07;;;;;;;;;;5094717;28;20411;-72
2022/07/09 10:18:23;;;;;;;23.87;22.47;;;;;;;;;;5094980;28;20784;-72
2022/07/09 10:20:56;;;;;;;22.57;21.27;;;;;;;;;;5094560;28;20487;-72
2022/07/09 10:23:24;;;;;;;23.57;22.33;;;;;;;;;;5094780;28;20840;-72
2022/07/09 10:25:55;;;;;;;23.20;21.83;;;;;;;;;;5094950;28;20461;-72
2022/07/09 10:28:25;;;;;;;22.30;21.10;;;;;;;;;;5094903;28;20482;-72
2022/07/09 10:30:53;;;;;;;23.07;21.77;;;;;;;;;;5094530;28;20435;-73
2022/07/09 10:33:23;;;;;;;23.00;21.60;;;;;;;;;;5094936;28;20404;-73
2022/07/09 10:35:52;;;;;;;23.17;21.77;;;;;;;;;;5094468;28;20425;-73
2022/07/09 10:38:21;;;;;;;23.03;21.73;;;;;;;;;;5094388;28;20893;-72
2022/07/09 10:40:49;;;;;;;22.07;20.87;;;;;;;;;;5094330;28;20451;-72
2022/07/09 10:43:17;;;;;;;22.00;20.80;;;;;;;;;;5094681;28;20421;-72
2022/07/09 10:45:46;;;;;;;23.53;22.13;;;;;;;;;;5094514;28;20486;-72
2022/07/09 10:48:14;;;;;;;22.00;20.80;;;;;;;;;;5094428;28;20419;-71
2022/07/09 10:50:42;;;;;;;22.17;20.87;;;;;;;;;;5094391;28;20750;-72
2022/07/09 10:53:11;;;;;;;22.70;21.37;;;;;;;;;;5094514;28;20418;-73
2022/07/09 10:55:38;;;;;;;22.53;21.23;;;;;;;;;;5094399;28;20433;-73
2022/07/09 10:58:08;;;;;;;21.80;20.60;;;;;;;;;;5094007;28;20443;-73
2022/07/09 11:00:36;;;;;;;23.50;22.10;;;;;;;;;;5093898;28;20472;-72
2022/07/09 11:03:05;;;;;;;22.87;21.57;;;;;;;;;;5094250;28;20458;-72
2022/07/09 11:05:34;;;;;;;23.27;21.97;;;;;;;;;;5093730;28;20487;-73
2022/07/09 11:08:02;;;;;;;24.30;22.70;;;;;;;;;;5093723;28;20814;-72
2022/07/09 11:10:30;;;;;;;22.63;21.40;;;;;;;;;;5094068;28;20432;-72
2022/07/09 11:12:58;;;;;;;23.67;22.27;;;;;;;;;;5093669;28;20440;-73
2022/07/09 11:15:27;;;;;;;23.20;21.80;;;;;;;;;;5093879;28;20448;-73
2022/07/09 11:17:59;;;;;;;23.47;22.07;;;;;;;;;;5093789;28;20464;-73
2022/07/09 11:20:27;;;;;;;23.97;22.57;;;;;;;;;;5093495;28;20466;-73
2022/07/09 11:22:57;;;;;;;23.70;22.20;;;;;;;;;;5093477;28;20437;-73
2022/07/09 11:25:25;;;;;;;23.30;22.00;;;;;;;;;;5093803;28;20480;-72
2022/07/09 11:27:54;;;;;;;23.33;21.93;;;;;;;;;;5093484;28;20440;-72
2022/07/09 11:30:21;;;;;;;22.43;21.23;;;;;;;;;;5093734;28;20444;-73
2022/07/09 11:32:49;;;;;;;23.37;22.03;;;;;;;;;;5093439;28;20436;-72
2022/07/09 11:35:28;;;;;;;23.50;22.20;;;;;;;;;;5093527;28;20434;-72
2022/07/09 11:37:56;;;;;;;24.00;22.40;;;;;;;;;;5093282;28;20914;-72
2022/07/09 11:40:23;;;;;;;22.97;21.67;;;;;;;;;;5092702;28;20925;-73
2022/07/09 11:42:50;;;;;;;23.40;22.10;;;;;;;;;;5093700;28;20411;-73
2022/07/09 11:45:21;;;;;;;23.17;21.87;;;;;;;;;;5093389;28;20530;-75
2022/07/09 11:47:49;;;;;;;23.23;21.83;;;;;;;;;;5093312;28;20527;-72
2022/07/09 11:50:18;;;;;;;21.80;20.50;;;;;;;;;;5093084;28;20977;-73
2022/07/09 11:52:47;;;;;;;23.10;21.80;;;;;;;;;;5093024;28;20443;-73
2022/07/09 11:55:16;;;;;;;23.53;21.93;;;;;;;;;;5084489;28;20954;-70
2022/07/09 11:57:52;;;;;;;23.33;22.03;;;;;;;;;;5079853;28;20466;-70
2022/07/09 12:00:22;;;;;;;22.00;20.80;;;;;;;;;;5072321;28;20435;-70
2022/07/09 12:02:50;;;;;;;22.07;20.80;;;;;;;;;;5072978;28;20802;-69
2022/07/09 12:05:26;;;;;;;22.53;21.23;;;;;;;;;;5072622;28;20477;-70
2022/07/09 12:07:55;;;;;;;23.40;22.10;;;;;;;;;;5072796;28;20415;-69
2022/07/09 12:10:27;;;;;;;23.27;21.97;;;;;;;;;;5072895;28;20460;-69
2022/07/09 12:12:54;;;;;;;23.73;21.83;;;;;;;;;;5081079;28;20804;-69
2022/07/09 12:15:22;;;;;;;24.50;23.00;;;;;;;;;;5092739;28;20937;-70
2022/07/09 12:17:54;;;;;;;23.60;22.30;;;;;;;;;;5092602;28;20404;-70
2022/07/09 12:20:21;;;;;;;23.03;21.73;;;;;;;;;;5092680;28;20512;-70
2022/07/09 12:22:49;;;;;;;23.83;22.43;;;;;;;;;;5093010;28;20441;-70
2022/07/09 12:25:18;;;;;;;23.20;21.70;;;;;;;;;;5092814;28;20454;-71
2022/07/09 12:27:45;;;;;;;23.97;22.53;;;;;;;;;;5092920;28;20941;-70
2022/07/09 12:30:13;;;;;;;23.40;21.90;;;;;;;;;;5092837;28;20419;-71
2022/07/09 12:32:41;;;;;;;24.70;23.30;;;;;;;;;;5093053;28;20436;-71
2022/07/09 12:35:09;;;;;;;25.17;23.67;;;;;;;;;;5092903;28;20494;-71
2022/07/09 12:37:36;;;;;;;25.30;23.63;;;;;;;;;;5092863;28;20433;-70
2022/07/09 12:40:04;;;;;;;24.77;23.47;;;;;;;;;;5092800;28;20441;-70
2022/07/09 12:42:33;;;;;;;24.67;23.27;;;;;;;;;;5092903;28;20899;-70
2022/07/09 12:45:00;;;;;;;23.60;22.30;;;;;;;;;;5092463;28;20447;-70
2022/07/09 12:47:28;;;;;;;23.57;22.07;;;;;;;;;;5092562;28;20940;-71
2022/07/09 12:49:55;;;;;;;23.03;21.73;;;;;;;;;;5092736;28;20423;-71
2022/07/09 12:52:22;;;;;;;23.50;22.30;;;;;;;;;;5092596;28;20426;-70
2022/07/09 12:54:50;;;;;;;24.93;23.53;;;;;;;;;;5096810;28;20434;-71
2022/07/09 12:57:20;;;;;;;23.40;22.10;;;;;;;;;;5096763;28;20444;-70
2022/07/09 12:59:49;;;;;;;24.83;23.43;;;;;;;;;;5096728;28;20445;-71
2022/07/09 13:02:16;;;;;;;24.23;22.93;;;;;;;;;;5096225;28;20807;-70
2022/07/09 13:04:44;;;;;;;23.93;22.63;;;;;;;;;;5096470;28;20478;-71
2022/07/09 13:07:11;;;;;;;25.50;23.90;;;;;;;;;;5096153;28;20429;-71
2022/07/09 13:09:38;;;;;;;24.20;22.80;;;;;;;;;;5096076;28;20437;-70
2022/07/09 13:12:06;;;;;;;24.90;23.50;;;;;;;;;;5096300;28;20486;-70
2022/07/09 13:14:33;;;;;;;25.10;23.70;;;;;;;;;;5096289;28;20433;-70
2022/07/09 13:17:02;;;;;;;24.63;23.23;;;;;;;;;;5096191;28;20419;-72
2022/07/09 13:19:29;;;;;;;23.20;21.90;;;;;;;;;;5095658;28;20480;-71
2022/07/09 13:21:56;;;;;;;23.63;22.33;;;;;;;;;;5096015;28;20471;-71
2022/07/09 13:24:24;;;;;;;24.10;22.80;;;;;;;;;;5096095;28;20768;-71
2022/07/09 13:26:51;;;;;;;23.77;22.47;;;;;;;;;;5096069;28;20454;-71
2022/07/09 13:29:20;;;;;;;23.20;21.90;;;;;;;;;;5095699;28;20444;-71
2022/07/09 13:31:47;;;;;;;24.10;22.70;;;;;;;;;;5096014;28;20533;-71
2022/07/09 13:34:16;;;;;;;23.63;22.30;;;;;;;;;;5095596;28;20433;-70
2022/07/09 13:36:43;;;;;;;22.83;21.53;;;;;;;;;;5095960;28;20407;-70
2022/07/09 13:39:10;;;;;;;23.30;21.90;;;;;;;;;;5095572;28;20869;-71
2022/07/09 13:41:37;;;;;;;23.80;22.50;;;;;;;;;;5095850;28;20437;-70
2022/07/09 13:44:05;;;;;;;23.70;22.30;;;;;;;;;;5095904;28;20432;-71
2022/07/09 13:46:32;;;;;;;23.00;21.60;;;;;;;;;;5095302;28;20465;-71
2022/07/09 13:49:02;;;;;;;23.90;22.47;;;;;;;;;;5095312;28;20897;-69
2022/07/09 13:51:35;;;;;;;23.50;22.10;;;;;;;;;;5095261;28;20437;-70
2022/07/09 13:54:07;;;;;;;24.37;22.97;;;;;;;;;;5095265;28;20511;-70
2022/07/09 13:56:37;;;;;;;23.50;22.20;;;;;;;;;;5095167;28;20490;-70
2022/07/09 13:59:08;;;;;;;23.17;21.87;;;;;;;;;;5095082;28;20440;-70
2022/07/09 14:01:38;;;;;;;23.50;22.20;;;;;;;;;;5095022;28;20934;-70
2022/07/09 14:04:08;;;;;;;24.30;22.90;;;;;;;;;;5094588;28;20950;-70
2022/07/09 14:06:39;;;;;;;23.73;22.33;;;;;;;;;;5094910;28;20479;-70
2022/07/09 14:09:07;;;;;;;24.00;22.70;;;;;;;;;;5095051;28;20445;-71
2022/07/09 14:11:36;;;;;;;24.20;22.90;;;;;;;;;;5095015;28;20776;-70
2022/07/09 14:14:06;;;;;;;24.47;23.07;;;;;;;;;;5093798;28;20414;-70
2022/07/09 14:16:35;;;;;;;23.80;22.50;;;;;;;;;;5094878;28;20414;-68
2022/07/09 14:19:05;;;;;;;23.67;22.27;;;;;;;;;;5094625;28;20443;-69
2022/07/09 14:21:35;;;;;;;23.70;22.40;;;;;;;;;;5094607;28;20473;-70